Time;durP1;ratioP1;P1;durP2;ratioP2;P2;SDS_P1;SDS_P2;PMS_P1;PMS_P2;Temp;Humidity;BMP_temperature;BMP_pressure;BME280_temperature;BME280_humidity;BME280_pressure;Samples;Min_cycle;Max_cycle;Signal;HPM_P1;HPM_P2
2022/09/13 00:00:06;;;;;;;1.70;0.90;;;13.00;99.90;;;;;;5051785;28;20182;-66
2022/09/13 00:02:32;;;;;;;3.87;1.37;;;13.00;99.90;;;;;;5052013;28;20178;-66
2022/09/13 00:04:57;;;;;;;1.90;0.90;;;13.00;99.90;;;;;;5051619;28;20466;-66
2022/09/13 00:07:23;;;;;;;2.70;1.23;;;13.00;99.90;;;;;;5052221;28;20566;-64
2022/09/13 00:09:49;;;;;;;1.93;0.90;;;13.00;99.90;;;;;;5052063;28;20185;-64
2022/09/13 00:12:14;;;;;;;2.33;1.03;;;13.00;99.90;;;;;;5051788;28;20629;-64
2022/09/13 00:14:40;;;;;;;2.43;1.17;;;13.00;99.90;;;;;;5051390;28;20189;-64
2022/09/13 00:17:06;;;;;;;1.70;0.80;;;12.90;99.90;;;;;;5052241;28;20296;-64
2022/09/13 00:19:32;;;;;;;2.10;1.10;;;12.90;99.90;;;;;;5051808;28;20460;-64
2022/09/13 00:21:58;;;;;;;1.60;0.77;;;12.90;99.90;;;;;;5051527;28;20518;-64
2022/09/13 00:24:23;;;;;;;2.10;0.93;;;12.90;99.90;;;;;;5051753;28;20186;-64
2022/09/13 00:26:49;;;;;;;2.67;0.90;;;12.90;99.90;;;;;;5050290;28;20342;-64
2022/09/13 00:29:14;;;;;;;3.60;1.20;;;12.90;99.90;;;;;;5045881;28;20185;-64
2022/09/13 00:31:40;;;;;;;1.83;0.80;;;12.90;99.90;;;;;;5051640;28;20565;-64
2022/09/13 00:34:06;;;;;;;3.33;0.90;;;12.80;99.90;;;;;;5052080;28;20208;-64
2022/09/13 00:36:31;;;;;;;3.93;1.03;;;12.90;99.90;;;;;;5051921;28;20178;-64
2022/09/13 00:38:59;;;;;;;2.40;1.20;;;12.80;99.90;;;;;;5051990;28;20255;-64
2022/09/13 00:41:24;;;;;;;1.80;1.00;;;12.80;99.90;;;;;;5051457;28;20189;-65
2022/09/13 00:43:56;;;;;;;2.40;1.30;;;12.80;99.90;;;;;;5051835;28;20408;-64
2022/09/13 00:46:21;;;;;;;5.17;1.70;;;12.80;99.90;;;;;;5052006;28;20186;-64
2022/09/13 00:48:50;;;;;;;2.43;1.10;;;12.80;99.90;;;;;;5051876;28;20424;-64
2022/09/13 00:51:16;;;;;;;2.70;1.10;;;12.80;99.90;;;;;;5051473;28;20190;-64
2022/09/13 00:53:48;;;;;;;2.70;1.13;;;12.70;99.90;;;;;;5038655;28;20475;-64
2022/09/13 00:56:19;;;;;;;3.10;1.27;;;12.80;99.90;;;;;;5051805;28;20194;-64
2022/09/13 00:59:06;;;;;;;1.83;1.10;;;12.70;99.90;;;;;;5051643;28;20497;-64
2022/09/13 01:01:39;;;;;;;2.83;1.20;;;12.70;99.90;;;;;;5050999;28;20422;-64
2022/09/13 01:04:05;;;;;;;2.00;1.00;;;12.70;99.90;;;;;;5044074;28;20404;-64
2022/09/13 01:06:34;;;;;;;3.73;1.87;;;12.70;99.90;;;;;;5055901;28;20499;-64
2022/09/13 01:09:03;;;;;;;3.47;1.53;;;12.70;99.90;;;;;;5055878;28;20499;-64
2022/09/13 01:11:34;;;;;;;2.80;1.30;;;12.60;99.90;;;;;;5054636;28;20448;-64
2022/09/13 01:14:01;;;;;;;5.40;1.00;;;12.60;99.90;;;;;;5055163;28;20420;-64
2022/09/13 01:16:27;;;;;;;1.80;0.90;;;12.60;99.90;;;;;;5041472;28;20511;-64
2022/09/13 01:18:52;;;;;;;2.40;0.90;;;12.60;99.90;;;;;;5055419;28;20551;-64
2022/09/13 01:21:39;;;;;;;2.87;0.97;;;12.50;99.90;;;;;;5054649;28;20182;-64
2022/09/13 01:24:35;;;;;;;2.50;0.80;;;12.60;99.90;;;;;;5055156;28;20217;-63
2022/09/13 01:27:10;;;;;;;1.70;1.00;;;12.60;99.90;;;;;;5055116;28;20511;-64
2022/09/13 01:29:57;;;;;;;1.70;1.10;;;12.50;99.90;;;;;;5054472;28;20503;-64
2022/09/13 01:33:00;;;;;;;2.37;1.20;;;12.50;99.90;;;;;;5054502;28;20412;-64
2022/09/13 01:35:55;;;;;;;1.90;0.80;;;12.60;99.90;;;;;;5046240;28;21004;-64
2022/09/13 01:38:34;;;;;;;3.77;1.67;;;12.60;99.90;;;;;;5055002;28;20462;-64
2022/09/13 01:41:09;;;;;;;4.03;1.33;;;12.70;99.90;;;;;;5054101;28;20458;-64
2022/09/13 01:44:02;;;;;;;2.90;0.93;;;12.70;99.90;;;;;;5054822;28;20408;-64
2022/09/13 01:46:52;;;;;;;2.47;1.30;;;12.70;99.90;;;;;;5042588;28;20519;-64
2022/09/13 01:49:33;;;;;;;2.20;1.40;;;12.80;99.90;;;;;;5028964;28;20428;-64
2022/09/13 01:52:03;;;;;;;1.90;1.20;;;12.90;99.90;;;;;;5054233;28;20416;-64
2022/09/13 01:54:51;;;;;;;2.53;1.37;;;12.90;99.90;;;;;;5054698;28;20401;-65
2022/09/13 01:57:31;;;;;;;6.10;1.13;;;12.90;99.90;;;;;;5053899;28;20483;-65
2022/09/13 02:00:08;;;;;;;2.43;1.50;;;12.90;99.90;;;;;;5053719;28;20471;-65
2022/09/13 02:02:38;;;;;;;1.83;1.00;;;12.90;99.90;;;;;;5041439;28;20404;-64
2022/09/13 02:05:31;;;;;;;2.30;1.20;;;13.00;99.90;;;;;;5036701;28;20413;-64
2022/09/13 02:08:20;;;;;;;2.03;1.03;;;13.00;99.90;;;;;;5054450;28;20496;-65
2022/09/13 02:10:54;;;;;;;1.93;1.27;;;13.00;99.90;;;;;;5043035;28;20966;-65
2022/09/13 02:13:25;;;;;;;3.30;1.67;;;12.90;99.90;;;;;;5053480;28;20418;-65
2022/09/13 02:15:57;;;;;;;2.20;1.30;;;12.90;99.90;;;;;;5052671;28;20412;-65
2022/09/13 02:18:32;;;;;;;1.97;1.03;;;12.90;99.90;;;;;;5054681;28;20459;-65
2022/09/13 02:21:05;;;;;;;2.87;1.27;;;12.90;99.90;;;;;;5054316;28;20454;-64
2022/09/13 02:23:42;;;;;;;3.73;1.50;;;12.90;99.90;;;;;;5054674;28;20412;-64
2022/09/13 02:26:11;;;;;;;2.17;1.40;;;12.90;99.90;;;;;;5054319;28;20450;-64
2022/09/13 02:28:41;;;;;;;5.80;0.90;;;12.90;99.90;;;;;;5054167;28;20430;-66
2022/09/13 02:31:08;;;;;;;1.87;0.90;;;12.90;99.90;;;;;;5053531;28;20454;-66
2022/09/13 02:33:41;;;;;;;2.40;1.20;;;12.90;99.90;;;;;;5054582;28;20417;-64
2022/09/13 02:36:20;;;;;;;2.67;1.17;;;12.90;99.90;;;;;;5040850;28;20822;-65
2022/09/13 02:39:06;;;;;;;1.83;1.00;;;12.90;99.90;;;;;;5054268;28;21120;-65
2022/09/13 02:41:43;;;;;;;2.73;1.47;;;12.90;99.90;;;;;;5053309;28;20416;-65
2022/09/13 02:44:15;;;;;;;6.47;1.40;;;12.90;99.90;;;;;;5053473;28;20426;-65
2022/09/13 02:46:50;;;;;;;2.47;1.07;;;13.00;99.90;;;;;;5053357;28;20869;-64
2022/09/13 02:49:41;;;;;;;2.73;1.17;;;12.90;99.90;;;;;;5053989;28;21062;-65
2022/09/13 02:52:26;;;;;;;4.50;1.53;;;12.90;99.90;;;;;;5053481;28;20458;-65
2022/09/13 02:55:20;;;;;;;2.70;1.53;;;12.90;99.90;;;;;;5053723;28;20423;-65
2022/09/13 02:58:40;;;;;;;2.40;1.30;;;12.90;99.90;;;;;;5041445;28;20437;-64
2022/09/13 03:01:06;;;;;;;2.13;1.20;;;12.90;99.90;;;;;;5030696;28;20429;-64
2022/09/13 03:03:31;;;;;;;2.70;1.53;;;12.90;99.90;;;;;;5047260;28;20426;-64
2022/09/13 03:05:57;;;;;;;2.20;1.50;;;12.80;99.90;;;;;;5053748;28;20177;-65
2022/09/13 03:08:23;;;;;;;2.00;1.10;;;12.80;99.90;;;;;;5053417;28;20209;-65
2022/09/13 03:11:07;;;;;;;2.03;1.13;;;12.70;99.90;;;;;;5053171;28;20714;-64
2022/09/13 03:13:51;;;;;;;2.03;1.20;;;12.70;99.90;;;;;;5052646;28;20503;-65
2022/09/13 03:16:32;;;;;;;2.03;1.17;;;12.70;99.90;;;;;;5069311;22;20487;-65
2022/09/13 03:19:34;;;;;;;1.90;1.00;;;12.70;99.90;;;;;;5053111;28;20456;-65
2022/09/13 03:22:03;;;;;;;2.10;1.00;;;12.70;99.90;;;;;;5040676;28;20490;-64
2022/09/13 03:24:49;;;;;;;2.30;1.40;;;12.70;99.90;;;;;;5052999;28;20416;-64
2022/09/13 03:27:33;;;;;;;2.00;1.00;;;12.70;99.90;;;;;;5052712;28;20428;-65
2022/09/13 03:30:05;;;;;;;1.57;0.80;;;12.70;99.90;;;;;;5038975;28;20417;-64
2022/09/13 03:32:36;;;;;;;2.23;1.10;;;12.70;99.90;;;;;;5052237;28;20423;-64
2022/09/13 03:35:17;;;;;;;2.80;1.20;;;12.70;99.90;;;;;;5052621;28;20420;-65
2022/09/13 03:37:56;;;;;;;3.73;1.70;;;12.70;99.90;;;;;;5052765;28;20474;-65
2022/09/13 03:40:37;;;;;;;1.90;1.10;;;12.70;99.90;;;;;;5052380;28;20424;-64
2022/09/13 03:43:13;;;;;;;6.10;1.70;;;12.70;99.90;;;;;;5039617;28;20430;-64
2022/09/13 03:45:54;;;;;;;3.20;1.83;;;12.70;99.90;;;;;;5051505;28;20412;-64
2022/09/13 03:48:22;;;;;;;2.20;1.13;;;12.60;99.90;;;;;;5052687;28;20443;-65
2022/09/13 03:50:49;;;;;;;3.37;1.33;;;12.60;99.90;;;;;;5052050;28;20792;-65
2022/09/13 03:53:22;;;;;;;3.40;1.77;;;12.60;99.90;;;;;;5051770;28;20900;-64
2022/09/13 03:55:48;;;;;;;4.53;1.73;;;12.60;99.90;;;;;;5052026;28;20444;-64
2022/09/13 03:58:16;;;;;;;2.60;1.27;;;12.70;99.90;;;;;;5045595;28;20553;-64
2022/09/13 04:00:43;;;;;;;2.90;1.37;;;12.60;99.90;;;;;;5051528;28;20217;-64
2022/09/13 04:03:10;;;;;;;3.80;2.00;;;12.60;99.90;;;;;;5051062;28;20437;-65
2022/09/13 04:05:35;;;;;;;3.40;1.73;;;12.60;99.90;;;;;;5052030;28;20454;-64
2022/09/13 04:08:04;;;;;;;2.30;1.10;;;12.60;99.90;;;;;;5052378;28;20796;-65
2022/09/13 04:10:31;;;;;;;2.70;1.43;;;12.60;99.90;;;;;;5052177;28;20273;-65
2022/09/13 04:12:58;;;;;;;2.23;1.20;;;12.50;99.90;;;;;;5051752;28;20424;-65
2022/09/13 04:15:23;;;;;;;4.80;1.70;;;12.50;99.90;;;;;;5038166;28;20448;-65
2022/09/13 04:17:49;;;;;;;2.17;1.30;;;12.50;99.90;;;;;;5052103;28;20739;-65
2022/09/13 04:20:15;;;;;;;2.80;1.63;;;12.50;99.90;;;;;;5052230;28;20185;-65
2022/09/13 04:22:41;;;;;;;3.00;1.80;;;12.50;99.90;;;;;;5051749;28;20185;-65
2022/09/13 04:25:07;;;;;;;1.83;1.10;;;12.50;99.90;;;;;;5052056;28;20517;-65
2022/09/13 04:27:34;;;;;;;2.13;1.30;;;12.50;99.90;;;;;;5052123;28;20180;-65
2022/09/13 04:30:01;;;;;;;2.67;1.63;;;12.50;99.90;;;;;;5051350;28;20424;-65
2022/09/13 04:32:26;;;;;;;5.90;1.60;;;12.50;99.90;;;;;;5050766;28;20427;-65
2022/09/13 04:34:53;;;;;;;4.60;1.60;;;12.50;99.90;;;;;;5045624;28;20420;-65
2022/09/13 04:37:19;;;;;;;2.30;1.23;;;12.60;99.90;;;;;;5040632;28;20178;-65
2022/09/13 04:39:45;;;;;;;2.90;1.30;;;12.60;99.90;;;;;;5049974;28;20521;-65
2022/09/13 04:42:11;;;;;;;4.37;2.07;;;12.60;99.90;;;;;;5055896;28;20773;-65
2022/09/13 04:44:37;;;;;;;3.50;1.90;;;12.60;99.90;;;;;;5055616;28;20518;-65
2022/09/13 04:47:04;;;;;;;5.23;1.43;;;12.70;99.90;;;;;;5055897;28;20936;-65
2022/09/13 04:49:30;;;;;;;6.67;1.10;;;12.70;99.90;;;;;;5056022;28;20196;-64
2022/09/13 04:51:56;;;;;;;2.80;1.60;;;12.70;99.90;;;;;;5055407;28;20440;-65
2022/09/13 04:54:22;;;;;;;3.50;1.70;;;12.80;99.90;;;;;;5055998;28;20182;-65
2022/09/13 04:56:48;;;;;;;5.23;1.80;;;12.80;99.90;;;;;;5055896;28;20242;-65
2022/09/13 04:59:14;;;;;;;3.13;1.30;;;12.80;99.90;;;;;;5050281;28;20206;-65
2022/09/13 05:01:40;;;;;;;3.10;1.67;;;12.80;99.90;;;;;;5047926;28;20438;-65
2022/09/13 05:04:06;;;;;;;4.23;1.70;;;12.80;99.90;;;;;;5054997;28;20984;-65
2022/09/13 05:06:32;;;;;;;3.60;1.60;;;12.80;99.90;;;;;;5055565;28;20236;-65
2022/09/13 05:08:58;;;;;;;3.73;1.63;;;12.80;99.90;;;;;;5055531;28;20451;-65
2022/09/13 05:11:25;;;;;;;2.30;1.40;;;12.80;99.90;;;;;;5054884;28;20439;-65
2022/09/13 05:13:54;;;;;;;4.47;1.50;;;12.70;99.90;;;;;;5055229;28;20204;-65
2022/09/13 05:16:24;;;;;;;2.60;1.20;;;12.70;99.90;;;;;;5054565;28;20444;-65
2022/09/13 05:18:50;;;;;;;3.73;1.73;;;12.70;99.90;;;;;;5054512;28;20481;-66
2022/09/13 05:21:17;;;;;;;4.43;1.80;;;12.70;99.90;;;;;;5049833;28;20447;-65
2022/09/13 05:23:43;;;;;;;3.40;1.43;;;12.70;99.90;;;;;;5055278;28;20470;-65
2022/09/13 05:26:09;;;;;;;3.83;1.90;;;12.70;99.90;;;;;;5054869;28;20420;-65
2022/09/13 05:28:35;;;;;;;3.17;1.17;;;12.80;99.90;;;;;;5055070;28;20428;-65
2022/09/13 05:31:15;;;;;;;13.13;1.83;;;12.80;99.90;;;;;;5053802;28;20231;-65
2022/09/13 05:33:41;;;;;;;4.60;1.63;;;12.80;99.90;;;;;;5051328;28;21697;-65
2022/09/13 05:36:06;;;;;;;4.00;1.50;;;12.80;99.90;;;;;;5049475;28;20428;-65
2022/09/13 05:38:32;;;;;;;3.80;1.80;;;12.90;99.90;;;;;;5053525;28;20602;-65
2022/09/13 05:41:01;;;;;;;2.10;1.47;;;12.90;99.90;;;;;;5051331;28;20193;-65
2022/09/13 05:43:29;;;;;;;4.00;1.40;;;12.90;99.90;;;;;;5053411;28;20185;-65
2022/09/13 05:46:01;;;;;;;3.87;1.57;;;12.90;99.90;;;;;;5052634;28;20510;-65
2022/09/13 05:48:27;;;;;;;6.50;1.33;;;12.90;99.90;;;;;;5053337;28;20432;-65
2022/09/13 05:50:52;;;;;;;7.30;2.17;;;12.90;99.90;;;;;;5053171;28;20912;-65
2022/09/13 05:53:18;;;;;;;10.47;1.77;;;12.90;99.90;;;;;;5049771;28;20319;-65
2022/09/13 05:55:43;;;;;;;3.20;1.30;;;12.90;99.90;;;;;;5053346;28;20193;-65
2022/09/13 05:58:09;;;;;;;2.20;1.33;;;13.00;99.90;;;;;;5053290;28;20219;-65
2022/09/13 06:00:35;;;;;;;2.40;1.40;;;13.10;99.90;;;;;;5052206;28;20182;-65
2022/09/13 06:03:00;;;;;;;4.23;1.67;;;13.10;99.90;;;;;;5051831;28;20246;-65
2022/09/13 06:05:26;;;;;;;2.80;1.33;;;13.20;99.90;;;;;;5050057;28;20178;-65
2022/09/13 06:07:51;;;;;;;2.97;1.37;;;13.30;99.90;;;;;;5051833;28;20174;-65
2022/09/13 06:10:17;;;;;;;3.73;1.30;;;13.40;99.90;;;;;;5052687;28;20188;-65
2022/09/13 06:12:43;;;;;;;2.13;1.40;;;13.60;99.90;;;;;;5051949;28;20571;-65
2022/09/13 06:15:10;;;;;;;2.50;1.23;;;13.60;99.90;;;;;;5045675;28;20606;-65
2022/09/13 06:17:36;;;;;;;2.80;1.27;;;13.80;99.90;;;;;;5046122;28;20292;-65
2022/09/13 06:20:02;;;;;;;4.40;1.63;;;13.90;99.90;;;;;;5052719;28;20507;-65
2022/09/13 06:22:32;;;;;;;2.17;1.10;;;14.00;99.90;;;;;;5052263;28;20493;-65
2022/09/13 06:24:58;;;;;;;3.40;1.43;;;14.10;99.90;;;;;;5049358;28;20440;-65
2022/09/13 06:27:23;;;;;;;2.73;1.43;;;14.10;99.90;;;;;;5046675;28;20427;-65
2022/09/13 06:29:49;;;;;;;1.93;1.20;;;14.10;99.90;;;;;;5047146;28;20462;-65
2022/09/13 06:32:14;;;;;;;5.43;1.37;;;14.10;99.90;;;;;;5047091;28;20556;-66
2022/09/13 06:34:41;;;;;;;3.27;1.60;;;14.10;99.90;;;;;;5045497;28;20226;-65
2022/09/13 06:37:06;;;;;;;2.00;1.10;;;14.10;99.90;;;;;;5041254;28;20623;-65
2022/09/13 06:39:33;;;;;;;2.97;1.83;;;14.10;99.90;;;;;;5050480;28;20542;-65
2022/09/13 06:41:59;;;;;;;3.13;1.27;;;14.10;99.90;;;;;;5040252;28;20265;-65
2022/09/13 06:44:24;;;;;;;2.20;0.93;;;14.10;99.90;;;;;;5051710;28;20515;-66
2022/09/13 06:46:50;;;;;;;2.17;1.23;;;14.20;99.90;;;;;;5051703;28;20524;-65
2022/09/13 06:49:16;;;;;;;3.23;1.60;;;14.20;99.90;;;;;;5045344;28;20637;-65
2022/09/13 06:51:41;;;;;;;3.03;1.53;;;14.30;99.90;;;;;;5040814;28;20516;-65
2022/09/13 06:54:07;;;;;;;1.87;1.07;;;14.50;99.90;;;;;;5051774;28;20205;-65
2022/09/13 06:56:36;;;;;;;4.00;1.60;;;14.70;99.90;;;;;;5048093;28;20182;-65
2022/09/13 06:59:04;;;;;;;8.83;2.10;;;14.90;99.90;;;;;;5047554;28;20213;-66
2022/09/13 07:01:33;;;;;;;4.10;1.87;;;15.00;99.90;;;;;;5044460;28;20476;-66
2022/09/13 07:04:04;;;;;;;2.83;1.30;;;15.20;99.90;;;;;;5049109;28;20435;-66
2022/09/13 07:06:33;;;;;;;1.63;0.90;;;15.40;99.90;;;;;;5045435;28;20424;-65
2022/09/13 07:08:59;;;;;;;1.63;0.87;;;15.70;99.90;;;;;;5052263;28;20439;-66
2022/09/13 07:11:29;;;;;;;3.73;1.10;;;16.10;99.90;;;;;;5042255;28;20825;-65
2022/09/13 07:13:57;;;;;;;1.53;0.70;;;16.60;99.90;;;;;;5042318;28;20451;-66
2022/09/13 07:16:31;;;;;;;5.60;1.40;;;17.00;99.90;;;;;;5042316;28;20447;-66
2022/09/13 07:19:04;;;;;;;2.07;1.00;;;17.50;99.90;;;;;;5051490;28;20465;-66
2022/09/13 07:21:31;;;;;;;2.13;0.90;;;18.10;99.90;;;;;;5039751;28;20482;-66
2022/09/13 07:23:56;;;;;;;1.90;1.10;;;19.10;99.90;;;;;;5050547;28;20450;-65
2022/09/13 07:26:23;;;;;;;1.43;0.60;;;19.80;99.90;;;;;;5038091;28;20448;-66
2022/09/13 07:28:52;;;;;;;2.43;1.03;;;20.80;99.90;;;;;;5045524;28;20202;-65
2022/09/13 07:31:23;;;;;;;1.90;0.80;;;21.40;99.30;;;;;;5044402;28;20451;-66
2022/09/13 07:34:19;;;;;;;3.23;1.23;;;22.50;97.50;;;;;;5041827;28;20424;-66
2022/09/13 07:36:45;;;;;;;17.30;1.23;;;22.70;95.40;;;;;;5034670;28;20867;-66
2022/09/13 07:39:12;;;;;;;6.60;1.07;;;22.20;96.10;;;;;;5051513;28;20459;-70
2022/09/13 07:41:38;;;;;;;2.33;1.07;;;22.40;95.90;;;;;;5051538;28;20929;-78
2022/09/13 07:44:06;;;;;;;3.10;1.10;;;23.20;95.70;;;;;;5038321;28;20420;-65
2022/09/13 07:46:40;;;;;;;2.10;0.90;;;24.10;93.50;;;;;;5050726;28;20189;-65
2022/09/13 07:49:06;;;;;;;1.70;0.70;;;24.80;92.50;;;;;;5051083;28;20426;-65
2022/09/13 07:51:34;;;;;;;1.60;0.73;;;25.10;91.60;;;;;;5048147;28;20422;-65
2022/09/13 07:54:03;;;;;;;1.77;1.00;;;25.50;91.00;;;;;;5052926;28;20454;-65
2022/09/13 07:56:34;;;;;;;2.77;0.90;;;25.50;90.40;;;;;;5045964;28;20188;-65
2022/09/13 07:59:03;;;;;;;1.47;0.60;;;25.80;88.50;;;;;;5052729;28;21000;-69
2022/09/13 08:01:37;;;;;;;2.40;0.80;;;26.10;85.80;;;;;;5040287;28;20702;-69
2022/09/13 08:04:08;;;;;;;2.27;0.90;;;26.80;83.20;;;;;;5048611;28;20172;-69
2022/09/13 08:06:35;;;;;;;1.90;0.80;;;26.50;82.20;;;;;;5046612;28;20244;-66
2022/09/13 08:09:01;;;;;;;1.88;0.88;;;26.50;84.00;;;;;;5052293;28;20185;-66
2022/09/13 08:11:40;;;;;;;1.90;1.10;;;26.60;82.70;;;;;;5043013;28;20276;-66
2022/09/13 08:14:07;;;;;;;2.65;0.80;;;26.90;80.70;;;;;;5046306;28;20189;-66
2022/09/13 08:16:33;;;;;;;1.70;0.70;;;27.30;80.10;;;;;;5051695;28;20197;-66
2022/09/13 08:19:01;;;;;;;1.60;0.60;;;27.20;79.30;;;;;;5048928;28;20201;-66
2022/09/13 08:21:36;;;;;;;1.60;0.60;;;27.20;78.80;;;;;;5047858;28;20212;-66
2022/09/13 08:24:03;;;;;;;2.75;1.02;;;27.30;76.60;;;;;;5043463;28;20187;-66
2022/09/13 08:26:30;;;;;;;1.60;0.70;;;26.70;78.10;;;;;;5045560;28;20178;-66
2022/09/13 08:28:58;;;;;;;3.00;1.10;;;26.60;80.00;;;;;;5050028;28;20259;-66
2022/09/13 08:31:25;;;;;;;1.83;1.10;;;26.50;80.50;;;;;;5041874;28;20238;-66
2022/09/13 08:33:50;;;;;;;2.25;0.90;;;26.40;80.70;;;;;;5041322;28;20182;-66
2022/09/13 08:36:17;;;;;;;1.63;0.75;;;26.60;78.10;;;;;;5045239;28;20279;-66
2022/09/13 08:38:51;;;;;;;3.05;1.00;;;26.60;78.40;;;;;;5042572;28;20209;-66
2022/09/13 08:41:35;;;;;;;1.40;0.60;;;27.10;76.90;;;;;;5039962;28;20626;-66
2022/09/13 08:44:15;;;;;;;1.98;0.80;;;27.10;77.70;;;;;;5048842;28;20195;-66
2022/09/13 08:46:44;;;;;;;1.70;0.80;;;27.40;75.50;;;;;;5051266;28;20180;-66
2022/09/13 08:49:25;;;;;;;1.70;0.90;;;27.30;75.50;;;;;;5051865;28;20185;-67
2022/09/13 08:52:10;;;;;;;1.65;0.70;;;27.00;76.10;;;;;;5051222;28;20173;-66
2022/09/13 08:54:36;;;;;;;1.50;0.70;;;26.80;79.20;;;;;;5051750;28;20189;-67
2022/09/13 08:57:11;;;;;;;2.35;0.95;;;26.50;77.30;;;;;;5051350;28;20219;-67
2022/09/13 08:59:39;;;;;;;1.83;0.80;;;26.70;77.50;;;;;;5050634;28;20231;-66
2022/09/13 09:02:11;;;;;;;1.80;0.82;;;26.70;80.20;;;;;;5051177;28;20240;-66
2022/09/13 09:04:53;;;;;;;2.80;1.08;;;26.90;77.90;;;;;;5051498;28;20501;-66
2022/09/13 09:07:29;;;;;;;1.40;0.50;;;26.80;75.50;;;;;;5038971;28;20174;-66
2022/09/13 09:09:57;;;;;;;1.90;1.00;;;27.10;75.80;;;;;;5051072;28;20207;-69
2022/09/13 09:13:10;;;;;;;1.90;0.80;;;27.20;76.20;;;;;;5044665;28;20696;-69
2022/09/13 09:15:47;;;;;;;2.13;0.80;;;27.30;75.10;;;;;;5001509;28;20214;-69
2022/09/13 09:18:28;;;;;;;1.60;0.60;;;27.30;74.00;;;;;;5040540;28;20267;-69
2022/09/13 09:20:59;;;;;;;2.15;0.85;;;27.10;75.10;;;;;;5050400;28;20211;-69
2022/09/13 09:23:38;;;;;;;5.43;0.85;;;26.80;77.00;;;;;;5051384;28;20211;-69
2022/09/13 09:26:17;;;;;;;1.80;0.80;;;26.90;76.60;;;;;;5054938;28;20527;-69
2022/09/13 09:28:48;;;;;;;2.03;0.90;;;27.00;75.90;;;;;;5055332;28;20223;-68
2022/09/13 09:31:44;;;;;;;1.95;1.00;;;27.60;74.10;;;;;;5053724;28;20178;-69
2022/09/13 09:34:16;;;;;;;1.50;0.60;;;26.90;71.90;;;;;;5052576;28;20210;-69
2022/09/13 09:37:02;;;;;;;2.30;0.70;;;26.90;72.20;;;;;;5043076;28;20181;-69
2022/09/13 09:39:32;;;;;;;1.40;0.50;;;26.90;74.10;;;;;;5041956;28;20210;-69
2022/09/13 09:41:59;;;;;;;1.83;0.90;;;26.70;71.20;;;;;;5051830;28;20312;-69
2022/09/13 09:44:27;;;;;;;1.60;0.70;;;26.60;75.50;;;;;;5047604;28;20178;-69
2022/09/13 09:46:58;;;;;;;1.73;0.60;;;26.50;75.40;;;;;;5050228;28;20195;-69
2022/09/13 09:50:08;;;;;;;2.08;0.70;;;26.30;72.00;;;;;;5046253;28;20264;-69
2022/09/13 09:53:03;;;;;;;2.15;0.65;;;26.20;75.50;;;;;;5043533;28;20230;-69
2022/09/13 09:55:34;;;;;;;1.40;0.60;;;25.80;73.00;;;;;;5018958;28;20193;-69
2022/09/13 09:58:05;;;;;;;3.23;1.00;;;25.90;74.10;;;;;;5050266;28;20618;-69
2022/09/13 10:00:38;;;;;;;1.60;0.60;;;26.10;75.00;;;;;;5047197;28;20588;-70
2022/09/13 10:03:14;;;;;;;3.43;1.33;;;26.20;74.50;;;;;;5051415;28;20185;-69
2022/09/13 10:05:41;;;;;;;2.27;0.70;;;26.20;75.70;;;;;;5047216;28;20178;-69
2022/09/13 10:08:23;;;;;;;4.17;0.93;;;26.10;75.00;;;;;;5049721;28;20473;-69
2022/09/13 10:10:53;;;;;;;2.73;0.60;;;26.10;73.20;;;;;;5037423;28;20448;-69
2022/09/13 10:13:21;;;;;;;2.17;0.80;;;25.90;75.20;;;;;;5047506;28;20986;-69
2022/09/13 10:16:01;;;;;;;1.93;0.60;;;25.80;75.20;;;;;;5043033;28;20464;-69
2022/09/13 10:18:32;;;;;;;4.53;0.70;;;25.80;77.10;;;;;;5047125;28;21125;-69
2022/09/13 10:21:06;;;;;;;1.50;0.60;;;25.70;76.90;;;;;;5046269;28;20528;-68
2022/09/13 10:23:34;;;;;;;5.53;1.17;;;25.60;76.90;;;;;;5042456;28;20431;-69
2022/09/13 10:26:16;;;;;;;1.87;0.70;;;25.60;76.80;;;;;;5043513;28;20926;-69
2022/09/13 10:29:00;;;;;;;2.30;0.77;;;25.80;76.50;;;;;;5050141;28;20439;-69
2022/09/13 10:31:38;;;;;;;10.00;0.67;;;25.80;75.80;;;;;;5043203;28;20547;-69
2022/09/13 10:34:24;;;;;;;1.50;0.60;;;25.90;74.50;;;;;;5050809;28;20469;-69
2022/09/13 10:37:01;;;;;;;1.60;0.70;;;26.00;77.00;;;;;;5043476;28;20913;-68
2022/09/13 10:39:31;;;;;;;1.40;0.53;;;26.20;74.00;;;;;;5042122;28;20471;-69
2022/09/13 10:42:04;;;;;;;1.50;0.60;;;26.20;73.20;;;;;;5050962;28;20442;-69
2022/09/13 10:44:43;;;;;;;1.40;0.57;;;26.20;75.50;;;;;;5048707;28;20900;-69
2022/09/13 10:47:44;;;;;;;1.80;0.70;;;26.30;74.30;;;;;;5041502;28;20448;-70
2022/09/13 10:50:20;;;;;;;1.80;0.80;;;26.20;75.30;;;;;;5045264;28;20450;-69
2022/09/13 10:52:50;;;;;;;2.43;0.70;;;26.40;72.80;;;;;;5047359;28;20443;-69
2022/09/13 10:55:18;;;;;;;1.50;0.50;;;26.20;71.60;;;;;;5043883;28;20998;-69
2022/09/13 10:58:06;;;;;;;2.40;1.00;;;26.30;71.80;;;;;;5042151;28;20515;-67
2022/09/13 11:00:40;;;;;;;2.00;0.70;;;26.30;71.90;;;;;;5052590;28;20188;-66
2022/09/13 11:03:39;;;;;;;1.63;0.63;;;26.40;69.70;;;;;;5050476;28;20189;-66
2022/09/13 11:06:19;;;;;;;1.50;0.63;;;26.40;72.80;;;;;;5042989;28;20224;-66
2022/09/13 11:09:10;;;;;;;1.83;0.60;;;26.60;66.80;;;;;;5041009;28;20443;-67
2022/09/13 11:12:08;;;;;;;1.70;0.70;;;26.30;68.90;;;;;;5049897;28;20799;-66
2022/09/13 11:14:45;;;;;;;1.60;0.60;;;26.30;69.30;;;;;;5049117;28;20478;-66
2022/09/13 11:17:26;;;;;;;1.50;0.60;;;26.10;67.10;;;;;;5052011;28;20208;-66
2022/09/13 11:20:11;;;;;;;1.40;0.60;;;26.10;67.20;;;;;;5052064;28;20807;-66
2022/09/13 11:22:51;;;;;;;1.67;0.50;;;26.10;66.40;;;;;;5050974;28;20419;-67
2022/09/13 11:25:44;;;;;;;1.50;0.53;;;26.00;66.20;;;;;;5052099;28;20912;-67
2022/09/13 11:28:47;;;;;;;3.10;0.73;;;26.10;63.70;;;;;;5045322;28;20428;-66
2022/09/13 11:31:33;;;;;;;1.60;0.60;;;26.10;63.90;;;;;;5051479;28;20426;-66
2022/09/13 11:34:21;;;;;;;1.40;0.50;;;26.20;63.80;;;;;;5043998;28;20908;-67
2022/09/13 11:37:19;;;;;;;1.80;0.70;;;26.30;64.50;;;;;;5053059;28;20403;-66
2022/09/13 11:39:56;;;;;;;1.80;0.80;;;26.50;62.10;;;;;;5030002;28;20955;-66
2022/09/13 11:42:31;;;;;;;1.60;0.60;;;26.80;65.00;;;;;;5052389;28;20431;-66
2022/09/13 11:45:23;;;;;;;1.70;0.60;;;27.10;61.60;;;;;;5051767;28;20754;-66
2022/09/13 11:47:51;;;;;;;1.40;0.50;;;27.30;61.20;;;;;;5041031;28;20313;-67
2022/09/13 11:50:58;;;;;;;1.60;0.60;;;27.40;62.10;;;;;;5045268;28;20170;-66
2022/09/13 11:53:56;;;;;;;1.40;0.50;;;27.50;61.80;;;;;;5045979;28;20201;-66
2022/09/13 11:56:48;;;;;;;2.10;0.83;;;27.20;63.30;;;;;;5047943;28;20174;-66
2022/09/13 11:59:25;;;;;;;1.50;0.60;;;27.10;65.50;;;;;;5047512;28;20211;-66
2022/09/13 12:01:56;;;;;;;1.60;0.60;;;27.20;66.40;;;;;;5049467;28;20303;-67
2022/09/13 12:04:57;;;;;;;1.53;0.63;;;27.30;62.90;;;;;;5046750;28;20576;-67
2022/09/13 12:07:38;;;;;;;1.40;0.50;;;27.50;61.20;;;;;;5043359;28;20662;-67
2022/09/13 12:10:16;;;;;;;1.43;0.50;;;27.10;61.60;;;;;;5051022;28;20250;-67
2022/09/13 12:12:43;;;;;;;1.40;0.50;;;27.30;63.50;;;;;;5050468;28;20191;-67
2022/09/13 12:15:25;;;;;;;1.47;0.50;;;27.40;61.20;;;;;;5048621;28;20212;-67
2022/09/13 12:17:58;;;;;;;1.63;0.60;;;27.20;64.00;;;;;;5038595;28;20184;-67
2022/09/13 12:20:35;;;;;;;1.40;0.50;;;27.00;63.60;;;;;;5050279;28;20575;-67
2022/09/13 12:23:07;;;;;;;3.10;0.60;;;26.70;63.80;;;;;;5049785;28;20172;-67
2022/09/13 12:25:44;;;;;;;3.20;0.80;;;26.60;66.20;;;;;;5037123;28;20191;-67
2022/09/13 12:28:52;;;;;;;1.73;0.60;;;26.60;65.20;;;;;;5050864;28;20185;-67
2022/09/13 12:31:24;;;;;;;1.40;0.50;;;26.80;63.10;;;;;;4979523;28;20194;-67
2022/09/13 12:33:50;;;;;;;2.63;0.60;;;26.90;63.60;;;;;;5030315;28;20348;-67
2022/09/13 12:36:19;;;;;;;1.70;0.50;;;27.00;64.10;;;;;;5050657;28;20181;-67
2022/09/13 12:38:59;;;;;;;1.40;0.60;;;27.30;64.30;;;;;;5037444;28;20564;-67
2022/09/13 12:42:00;;;;;;;2.07;0.80;;;27.50;61.50;;;;;;5050094;28;20213;-67
2022/09/13 12:44:47;;;;;;;1.50;0.60;;;27.50;59.60;;;;;;5050510;28;20184;-67
2022/09/13 12:47:28;;;;;;;1.50;0.63;;;27.70;60.80;;;;;;5039840;28;20180;-67
2022/09/13 12:50:32;;;;;;;1.50;0.60;;;27.80;61.40;;;;;;5050644;28;20183;-67
2022/09/13 12:53:04;;;;;;;1.80;0.60;;;28.00;58.80;;;;;;5036778;28;20193;-67
2022/09/13 12:55:36;;;;;;;1.75;0.63;;;27.80;61.20;;;;;;5050046;28;20212;-67
2022/09/13 12:58:20;;;;;;;1.77;0.88;;;27.70;62.10;;;;;;5037729;28;20173;-67
2022/09/13 13:01:04;;;;;;;2.15;0.60;;;27.50;61.70;;;;;;5055324;28;20177;-67
2022/09/13 13:03:35;;;;;;;1.40;0.50;;;27.40;61.50;;;;;;5056151;28;20235;-67
2022/09/13 13:06:16;;;;;;;1.40;0.60;;;27.30;62.40;;;;;;5053773;28;20169;-67
2022/09/13 13:08:53;;;;;;;1.50;0.50;;;27.20;63.40;;;;;;5056212;28;20181;-67
2022/09/13 13:11:40;;;;;;;1.40;0.50;;;26.90;64.00;;;;;;5043714;28;20189;-67
2022/09/13 13:14:09;;;;;;;1.93;0.57;;;26.90;65.00;;;;;;5055865;28;20185;-67
2022/09/13 13:16:37;;;;;;;2.10;0.70;;;26.90;66.10;;;;;;5055123;28;20201;-67
2022/09/13 13:19:29;;;;;;;1.50;0.60;;;26.80;65.40;;;;;;5055887;28;20232;-67